sensor_id;sensor_type;location;lat;lon;timestamp;pressure;altitude;pressure_sealevel;temperature;humidity
64551;BME280;50945;44.472;-123.352;2022-09-02T00:01:27;99917.94;;;32.87;30.92
64551;BME280;50945;44.472;-123.352;2022-09-02T00:04:03;99915.72;;;32.93;30.63
64551;BME280;50945;44.472;-123.352;2022-09-02T00:06:30;99904.88;;;32.95;30.66
64551;BME280;50945;44.472;-123.352;2022-09-02T00:08:57;99902.03;;;32.95;30.56
64551;BME280;50945;44.472;-123.352;2022-09-02T00:11:26;99912.94;;;32.84;30.39
64551;BME280;50945;44.472;-123.352;2022-09-02T00:13:53;99906.06;;;32.73;30.85
64551;BME280;50945;44.472;-123.352;2022-09-02T00:16:20;99901.63;;;32.63;31.09
64551;BME280;50945;44.472;-123.352;2022-09-02T00:18:49;99900.03;;;32.53;30.96
64551;BME280;50945;44.472;-123.352;2022-09-02T00:21:17;99896.91;;;32.46;31.09
64551;BME280;50945;44.472;-123.352;2022-09-02T00:23:44;99896.50;;;32.35;30.82
64551;BME280;50945;44.472;-123.352;2022-09-02T00:26:12;99900.53;;;32.26;31.20
64551;BME280;50945;44.472;-123.352;2022-09-02T00:28:39;99890.47;;;32.16;31.40
64551;BME280;50945;44.472;-123.352;2022-09-02T00:31:06;99891.81;;;32.10;31.57
64551;BME280;50945;44.472;-123.352;2022-09-02T00:33:33;99895.13;;;32.03;31.48
64551;BME280;50945;44.472;-123.352;2022-09-02T00:36:01;99888.84;;;31.97;31.50
64551;BME280;50945;44.472;-123.352;2022-09-02T00:38:30;99892.56;;;31.89;31.56
64551;BME280;50945;44.472;-123.352;2022-09-02T00:41:03;99891.41;;;31.81;31.73
64551;BME280;50945;44.472;-123.352;2022-09-02T00:46:09;99880.88;;;31.61;31.85
64551;BME280;50945;44.472;-123.352;2022-09-02T00:48:38;99872.44;;;31.52;31.70
64551;BME280;50945;44.472;-123.352;2022-09-02T00:51:07;99869.13;;;31.41;31.98
64551;BME280;50945;44.472;-123.352;2022-09-02T00:53:34;99863.81;;;31.31;31.68
64551;BME280;50945;44.472;-123.352;2022-09-02T00:56:06;99867.81;;;31.21;31.99
64551;BME280;50945;44.472;-123.352;2022-09-02T00:58:36;99865.53;;;31.15;31.99
64551;BME280;50945;44.472;-123.352;2022-09-02T01:01:03;99864.03;;;31.08;32.27
64551;BME280;50945;44.472;-123.352;2022-09-02T01:03:31;99865.72;;;31.01;32.65
64551;BME280;50945;44.472;-123.352;2022-09-02T01:05:58;99857.56;;;30.90;32.99
64551;BME280;50945;44.472;-123.352;2022-09-02T01:08:31;99869.66;;;30.82;32.98
64551;BME280;50945;44.472;-123.352;2022-09-02T01:11:00;99866.03;;;30.73;32.96
64551;BME280;50945;44.472;-123.352;2022-09-02T01:13:29;99863.53;;;30.63;33.55
64551;BME280;50945;44.472;-123.352;2022-09-02T01:16:08;99858.72;;;30.55;33.47
64551;BME280;50945;44.472;-123.352;2022-09-02T01:18:35;99855.91;;;30.46;33.53
64551;BME280;50945;44.472;-123.352;2022-09-02T01:21:02;99846.28;;;30.38;33.58
64551;BME280;50945;44.472;-123.352;2022-09-02T01:23:29;99856.84;;;30.32;34.15
64551;BME280;50945;44.472;-123.352;2022-09-02T01:25:57;99859.31;;;30.25;34.33
64551;BME280;50945;44.472;-123.352;2022-09-02T01:28:24;99850.84;;;30.17;34.71
64551;BME280;50945;44.472;-123.352;2022-09-02T01:30:52;99849.50;;;30.05;34.49
64551;BME280;50945;44.472;-123.352;2022-09-02T01:33:21;99843.19;;;30.00;34.81
64551;BME280;50945;44.472;-123.352;2022-09-02T01:35:48;99853.63;;;29.90;34.71
64551;BME280;50945;44.472;-123.352;2022-09-02T01:38:15;99843.97;;;29.83;35.20
64551;BME280;50945;44.472;-123.352;2022-09-02T01:40:41;99843.63;;;29.75;35.43
64551;BME280;50945;44.472;-123.352;2022-09-02T01:43:12;99848.53;;;29.70;35.46
64551;BME280;50945;44.472;-123.352;2022-09-02T01:45:41;99846.84;;;29.60;35.49
64551;BME280;50945;44.472;-123.352;2022-09-02T01:48:08;99844.63;;;29.48;35.94
64551;BME280;50945;44.472;-123.352;2022-09-02T01:50:36;99840.13;;;29.38;35.85
64551;BME280;50945;44.472;-123.352;2022-09-02T01:53:03;99840.41;;;29.28;36.36
64551;BME280;50945;44.472;-123.352;2022-09-02T01:55:31;99836.72;;;29.19;36.38
64551;BME280;50945;44.472;-123.352;2022-09-02T01:57:57;99841.72;;;29.08;37.15
64551;BME280;50945;44.472;-123.352;2022-09-02T02:00:24;99842.97;;;28.93;37.95
64551;BME280;50945;44.472;-123.352;2022-09-02T02:02:51;99835.88;;;28.73;38.28
64551;BME280;50945;44.472;-123.352;2022-09-02T02:05:17;99834.91;;;28.55;38.89
64551;BME280;50945;44.472;-123.352;2022-09-02T02:07:44;99833.91;;;28.37;39.61
64551;BME280;50945;44.472;-123.352;2022-09-02T02:10:13;99837.06;;;28.22;39.94
64551;BME280;50945;44.472;-123.352;2022-09-02T02:12:40;99840.69;;;28.09;40.38
64551;BME280;50945;44.472;-123.352;2022-09-02T02:15:11;99839.59;;;27.96;40.95
64551;BME280;50945;44.472;-123.352;2022-09-02T02:17:37;99836.75;;;27.82;41.21
64551;BME280;50945;44.472;-123.352;2022-09-02T02:20:05;99841.75;;;27.71;41.56
64551;BME280;50945;44.472;-123.352;2022-09-02T02:22:32;99833.88;;;27.59;41.93
64551;BME280;50945;44.472;-123.352;2022-09-02T02:24:58;99831.88;;;27.46;42.38
64551;BME280;50945;44.472;-123.352;2022-09-02T02:27:25;99830.72;;;27.33;42.63
64551;BME280;50945;44.472;-123.352;2022-09-02T02:29:51;99830.44;;;27.16;43.00
64551;BME280;50945;44.472;-123.352;2022-09-02T02:32:18;99829.56;;;27.01;43.43
64551;BME280;50945;44.472;-123.352;2022-09-02T02:34:47;99826.94;;;26.91;43.77
64551;BME280;50945;44.472;-123.352;2022-09-02T02:37:14;99829.09;;;26.80;43.85
64551;BME280;50945;44.472;-123.352;2022-09-02T02:39:40;99837.66;;;26.70;43.88
64551;BME280;50945;44.472;-123.352;2022-09-02T02:42:07;99835.00;;;26.60;44.17
64551;BME280;50945;44.472;-123.352;2022-09-02T02:44:34;99834.31;;;26.49;44.50
64551;BME280;50945;44.472;-123.352;2022-09-02T02:47:00;99828.13;;;26.33;44.66
64551;BME280;50945;44.472;-123.352;2022-09-02T02:49:27;99834.78;;;26.18;44.99
64551;BME280;50945;44.472;-123.352;2022-09-02T02:51:53;99835.53;;;26.05;45.12
64551;BME280;50945;44.472;-123.352;2022-09-02T02:54:20;99839.84;;;25.92;45.58
64551;BME280;50945;44.472;-123.352;2022-09-02T02:56:46;99848.16;;;25.78;45.93
64551;BME280;50945;44.472;-123.352;2022-09-02T02:59:13;99846.66;;;25.61;46.21
64551;BME280;50945;44.472;-123.352;2022-09-02T03:01:39;99845.69;;;25.47;46.36
64551;BME280;50945;44.472;-123.352;2022-09-02T03:04:06;99845.78;;;25.37;46.61
64551;BME280;50945;44.472;-123.352;2022-09-02T03:06:32;99847.81;;;25.31;46.52
64551;BME280;50945;44.472;-123.352;2022-09-02T03:08:58;99847.31;;;25.24;46.88
64551;BME280;50945;44.472;-123.352;2022-09-02T03:11:25;99843.47;;;25.15;46.96
64551;BME280;50945;44.472;-123.352;2022-09-02T03:13:53;99849.44;;;25.03;47.26
64551;BME280;50945;44.472;-123.352;2022-09-02T03:16:20;99853.75;;;24.90;47.69
64551;BME280;50945;44.472;-123.352;2022-09-02T03:18:47;99850.50;;;24.78;48.03
64551;BME280;50945;44.472;-123.352;2022-09-02T03:21:15;99853.13;;;24.64;48.35
64551;BME280;50945;44.472;-123.352;2022-09-02T03:23:42;99849.81;;;24.52;48.72
64551;BME280;50945;44.472;-123.352;2022-09-02T03:26:14;99853.53;;;24.42;49.15
64551;BME280;50945;44.472;-123.352;2022-09-02T03:28:40;99857.81;;;24.29;51.60
64551;BME280;50945;44.472;-123.352;2022-09-02T03:31:13;99858.66;;;24.24;49.58
64551;BME280;50945;44.472;-123.352;2022-09-02T03:33:39;99858.16;;;24.17;49.61
64551;BME280;50945;44.472;-123.352;2022-09-02T03:36:06;99858.72;;;24.09;49.80
64551;BME280;50945;44.472;-123.352;2022-09-02T03:38:34;99863.50;;;24.03;50.17
64551;BME280;50945;44.472;-123.352;2022-09-02T03:41:00;99870.81;;;23.94;50.34
64551;BME280;50945;44.472;-123.352;2022-09-02T03:43:26;99859.41;;;23.85;50.47
64551;BME280;50945;44.472;-123.352;2022-09-02T03:45:53;99861.94;;;23.71;50.86
64551;BME280;50945;44.472;-123.352;2022-09-02T03:48:19;99870.63;;;23.60;50.95
64551;BME280;50945;44.472;-123.352;2022-09-02T03:50:48;99868.16;;;23.48;51.08
64551;BME280;50945;44.472;-123.352;2022-09-02T03:53:15;99869.03;;;23.38;51.26
64551;BME280;50945;44.472;-123.352;2022-09-02T03:55:41;99867.91;;;23.29;51.66
64551;BME280;50945;44.472;-123.352;2022-09-02T03:58:07;99863.47;;;23.18;51.87
64551;BME280;50945;44.472;-123.352;2022-09-02T04:00:34;99868.75;;;23.09;51.94
64551;BME280;50945;44.472;-123.352;2022-09-02T04:03:04;99868.44;;;23.00;52.32
64551;BME280;50945;44.472;-123.352;2022-09-02T04:05:31;99875.44;;;22.92;52.30
64551;BME280;50945;44.472;-123.352;2022-09-02T04:07:57;99874.59;;;22.87;52.31
64551;BME280;50945;44.472;-123.352;2022-09-02T04:10:24;99865.97;;;22.83;52.47
64551;BME280;50945;44.472;-123.352;2022-09-02T04:12:50;99865.94;;;22.78;52.52
64551;BME280;50945;44.472;-123.352;2022-09-02T04:15:18;99861.47;;;22.72;52.73
64551;BME280;50945;44.472;-123.352;2022-09-02T04:17:45;99863.97;;;22.63;52.93
64551;BME280;50945;44.472;-123.352;2022-09-02T04:20:12;99868.16;;;22.55;53.01
64551;BME280;50945;44.472;-123.352;2022-09-02T04:22:39;99866.19;;;22.51;53.04
64551;BME280;50945;44.472;-123.352;2022-09-02T04:25:07;99868.41;;;22.49;53.22
64551;BME280;50945;44.472;-123.352;2022-09-02T04:27:34;99870.34;;;22.43;53.10
64551;BME280;50945;44.472;-123.352;2022-09-02T04:30:01;99868.97;;;22.40;53.24
64551;BME280;50945;44.472;-123.352;2022-09-02T04:32:28;99873.69;;;22.35;53.28
64551;BME280;50945;44.472;-123.352;2022-09-02T04:34:54;99873.94;;;22.28;53.48
64551;BME280;50945;44.472;-123.352;2022-09-02T04:37:20;99865.53;;;22.18;54.29
64551;BME280;50945;44.472;-123.352;2022-09-02T04:39:46;99868.84;;;22.15;53.44
64551;BME280;50945;44.472;-123.352;2022-09-02T04:42:14;99869.69;;;22.10;53.72
64551;BME280;50945;44.472;-123.352;2022-09-02T04:44:40;99866.03;;;22.05;53.94
64551;BME280;50945;44.472;-123.352;2022-09-02T04:47:06;99874.38;;;21.99;54.34
64551;BME280;50945;44.472;-123.352;2022-09-02T04:49:33;99869.63;;;21.95;54.46
64551;BME280;50945;44.472;-123.352;2022-09-02T04:51:59;99874.06;;;21.91;54.56
64551;BME280;50945;44.472;-123.352;2022-09-02T04:54:25;99873.19;;;21.85;55.79
64551;BME280;50945;44.472;-123.352;2022-09-02T04:56:52;99872.63;;;21.83;54.60
64551;BME280;50945;44.472;-123.352;2022-09-02T04:59:18;99864.28;;;21.83;54.51
64551;BME280;50945;44.472;-123.352;2022-09-02T05:01:46;99872.63;;;21.83;55.11
64551;BME280;50945;44.472;-123.352;2022-09-02T05:04:12;99872.88;;;21.81;55.03
64551;BME280;50945;44.472;-123.352;2022-09-02T05:06:38;99871.22;;;21.80;54.83
64551;BME280;50945;44.472;-123.352;2022-09-02T05:09:07;99871.50;;;21.79;55.11
64551;BME280;50945;44.472;-123.352;2022-09-02T05:11:34;99875.69;;;21.76;55.26
64551;BME280;50945;44.472;-123.352;2022-09-02T05:14:02;99865.09;;;21.73;55.34
64551;BME280;50945;44.472;-123.352;2022-09-02T05:16:33;99868.97;;;21.72;55.47
64551;BME280;50945;44.472;-123.352;2022-09-02T05:19:05;99864.78;;;21.70;55.28
64551;BME280;50945;44.472;-123.352;2022-09-02T05:21:33;99872.56;;;21.68;55.46
64551;BME280;50945;44.472;-123.352;2022-09-02T05:23:59;99868.59;;;21.58;57.76
64551;BME280;50945;44.472;-123.352;2022-09-02T05:26:25;99871.09;;;21.50;55.45
64551;BME280;50945;44.472;-123.352;2022-09-02T05:28:51;99881.53;;;21.37;58.35
64551;BME280;50945;44.472;-123.352;2022-09-02T05:31:19;99877.59;;;21.33;55.53
64551;BME280;50945;44.472;-123.352;2022-09-02T05:33:46;99877.59;;;21.33;55.46
64551;BME280;50945;44.472;-123.352;2022-09-02T05:36:16;99878.72;;;21.32;55.85
64551;BME280;50945;44.472;-123.352;2022-09-02T05:38:44;99872.00;;;21.28;55.85
64551;BME280;50945;44.472;-123.352;2022-09-02T05:41:16;99880.63;;;21.26;55.97
64551;BME280;50945;44.472;-123.352;2022-09-02T05:43:44;99883.06;;;21.23;55.82
64551;BME280;50945;44.472;-123.352;2022-09-02T05:46:13;99871.66;;;21.19;55.78
64551;BME280;50945;44.472;-123.352;2022-09-02T05:48:43;99878.59;;;21.17;55.84
64551;BME280;50945;44.472;-123.352;2022-09-02T05:51:28;99888.84;;;21.11;55.95
64551;BME280;50945;44.472;-123.352;2022-09-02T05:53:56;99874.09;;;21.05;56.50
64551;BME280;50945;44.472;-123.352;2022-09-02T05:56:23;99874.88;;;21.01;56.60
64551;BME280;50945;44.472;-123.352;2022-09-02T05:58:50;99883.16;;;20.96;56.48
64551;BME280;50945;44.472;-123.352;2022-09-02T06:01:18;99883.38;;;20.89;56.90
64551;BME280;50945;44.472;-123.352;2022-09-02T06:03:45;99880.28;;;20.85;56.92
64551;BME280;50945;44.472;-123.352;2022-09-02T06:06:11;99886.09;;;20.79;57.20
64551;BME280;50945;44.472;-123.352;2022-09-02T06:08:38;99878.28;;;20.76;57.20
64551;BME280;50945;44.472;-123.352;2022-09-02T06:11:08;99873.22;;;20.73;57.20
64551;BME280;50945;44.472;-123.352;2022-09-02T06:13:36;99873.75;;;20.69;57.30
64551;BME280;50945;44.472;-123.352;2022-09-02T06:16:03;99876.53;;;20.69;57.37
64551;BME280;50945;44.472;-123.352;2022-09-02T06:18:32;99871.28;;;20.68;57.63
64551;BME280;50945;44.472;-123.352;2022-09-02T06:20:58;99871.53;;;20.66;57.50
64551;BME280;50945;44.472;-123.352;2022-09-02T06:23:24;99863.88;;;20.57;60.13
64551;BME280;50945;44.472;-123.352;2022-09-02T06:25:50;99868.00;;;20.49;57.45
64551;BME280;50945;44.472;-123.352;2022-09-02T06:28:17;99875.44;;;20.43;57.45
64551;BME280;50945;44.472;-123.352;2022-09-02T06:30:43;99879.81;;;20.39;59.58
64551;BME280;50945;44.472;-123.352;2022-09-02T06:33:10;99879.25;;;20.37;57.77
64551;BME280;50945;44.472;-123.352;2022-09-02T06:35:40;99876.97;;;20.34;57.69
64551;BME280;50945;44.472;-123.352;2022-09-02T06:38:07;99884.22;;;20.35;57.86
64551;BME280;50945;44.472;-123.352;2022-09-02T06:40:33;99884.72;;;20.32;57.97
64551;BME280;50945;44.472;-123.352;2022-09-02T06:43:00;99870.47;;;20.23;58.09
64551;BME280;50945;44.472;-123.352;2022-09-02T06:45:26;99871.78;;;20.16;58.76
64551;BME280;50945;44.472;-123.352;2022-09-02T06:47:52;99875.00;;;20.07;58.97
64551;BME280;50945;44.472;-123.352;2022-09-02T06:50:19;99868.56;;;20.02;59.44
64551;BME280;50945;44.472;-123.352;2022-09-02T06:52:46;99868.81;;;20.00;59.33
64551;BME280;50945;44.472;-123.352;2022-09-02T06:55:12;99870.19;;;19.98;59.34
64551;BME280;50945;44.472;-123.352;2022-09-02T06:57:39;99868.78;;;19.95;59.29
64551;BME280;50945;44.472;-123.352;2022-09-02T07:00:07;99879.53;;;19.91;59.36
64551;BME280;50945;44.472;-123.352;2022-09-02T07:02:34;99874.28;;;19.90;59.37
64551;BME280;50945;44.472;-123.352;2022-09-02T07:05:00;99870.06;;;19.87;59.32
64551;BME280;50945;44.472;-123.352;2022-09-02T07:07:41;99869.47;;;19.85;59.32
64551;BME280;50945;44.472;-123.352;2022-09-02T07:10:12;99861.94;;;19.81;59.38
64551;BME280;50945;44.472;-123.352;2022-09-02T07:12:40;99868.25;;;19.76;59.44
64551;BME280;50945;44.472;-123.352;2022-09-02T07:15:07;99864.06;;;19.73;59.49
64551;BME280;50945;44.472;-123.352;2022-09-02T07:17:33;99859.00;;;19.70;59.57
64551;BME280;50945;44.472;-123.352;2022-09-02T07:19:59;99864.50;;;19.65;61.88
64551;BME280;50945;44.472;-123.352;2022-09-02T07:22:26;99857.84;;;19.66;59.52
64551;BME280;50945;44.472;-123.352;2022-09-02T07:24:52;99855.31;;;19.65;59.65
64551;BME280;50945;44.472;-123.352;2022-09-02T07:27:19;99854.66;;;19.57;59.66
64551;BME280;50945;44.472;-123.352;2022-09-02T07:29:46;99855.13;;;19.49;59.72
64551;BME280;50945;44.472;-123.352;2022-09-02T07:32:15;99857.00;;;19.44;59.87
64551;BME280;50945;44.472;-123.352;2022-09-02T07:34:42;99867.75;;;19.40;59.95
64551;BME280;50945;44.472;-123.352;2022-09-02T07:37:08;99867.91;;;19.33;60.15
64551;BME280;50945;44.472;-123.352;2022-09-02T07:39:35;99871.78;;;19.32;60.30
64551;BME280;50945;44.472;-123.352;2022-09-02T07:42:01;99873.72;;;19.32;60.36
64551;BME280;50945;44.472;-123.352;2022-09-02T07:44:27;99877.31;;;19.32;60.16
64551;BME280;50945;44.472;-123.352;2022-09-02T07:46:54;99881.78;;;19.33;60.29
64551;BME280;50945;44.472;-123.352;2022-09-02T07:49:21;99871.78;;;19.32;60.24
64551;BME280;50945;44.472;-123.352;2022-09-02T07:51:48;99876.50;;;19.32;60.42
64551;BME280;50945;44.472;-123.352;2022-09-02T07:54:17;99872.88;;;19.31;60.25
64551;BME280;50945;44.472;-123.352;2022-09-02T07:56:44;99877.56;;;19.31;60.44
64551;BME280;50945;44.472;-123.352;2022-09-02T07:59:11;99869.53;;;19.29;60.59
64551;BME280;50945;44.472;-123.352;2022-09-02T08:01:37;99863.38;;;19.27;60.57
64551;BME280;50945;44.472;-123.352;2022-09-02T08:04:04;99867.19;;;19.21;60.72
64551;BME280;50945;44.472;-123.352;2022-09-02T08:06:31;99867.59;;;19.13;60.88
64551;BME280;50945;44.472;-123.352;2022-09-02T08:08:58;99871.91;;;19.04;61.05
64551;BME280;50945;44.472;-123.352;2022-09-02T08:11:25;99867.28;;;18.92;61.44
64551;BME280;50945;44.472;-123.352;2022-09-02T08:13:51;99873.69;;;18.81;61.63
64551;BME280;50945;44.472;-123.352;2022-09-02T08:16:17;99879.81;;;18.66;65.31
64551;BME280;50945;44.472;-123.352;2022-09-02T08:18:43;99874.09;;;18.56;61.95
64551;BME280;50945;44.472;-123.352;2022-09-02T08:21:09;99875.16;;;18.38;65.42
64551;BME280;50945;44.472;-123.352;2022-09-02T08:23:36;99878.81;;;18.27;62.28
64551;BME280;50945;44.472;-123.352;2022-09-02T08:26:03;99871.91;;;18.12;62.25
64551;BME280;50945;44.472;-123.352;2022-09-02T08:28:30;99877.97;;;17.97;62.78
64551;BME280;50945;44.472;-123.352;2022-09-02T08:31:04;99877.13;;;17.85;62.67
64551;BME280;50945;44.472;-123.352;2022-09-02T08:33:30;99875.22;;;17.74;63.07
64551;BME280;50945;44.472;-123.352;2022-09-02T08:36:04;99878.34;;;17.65;63.38
64551;BME280;50945;44.472;-123.352;2022-09-02T08:38:30;99873.22;;;17.57;63.60
64551;BME280;50945;44.472;-123.352;2022-09-02T08:40:57;99881.63;;;17.51;63.55
64551;BME280;50945;44.472;-123.352;2022-09-02T08:43:34;99880.69;;;17.45;63.82
64551;BME280;50945;44.472;-123.352;2022-09-02T08:46:05;99884.16;;;17.40;63.65
64551;BME280;50945;44.472;-123.352;2022-09-02T08:48:42;99881.03;;;17.37;63.69
64551;BME280;50945;44.472;-123.352;2022-09-02T08:51:17;99892.31;;;17.35;63.70
64551;BME280;50945;44.472;-123.352;2022-09-02T08:56:34;99895.19;;;17.28;63.76
64551;BME280;50945;44.472;-123.352;2022-09-02T08:59:02;99897.97;;;17.28;63.87
64551;BME280;50945;44.472;-123.352;2022-09-02T09:01:50;99894.84;;;17.25;65.87
64551;BME280;50945;44.472;-123.352;2022-09-02T09:07:26;99890.41;;;17.24;65.73
64551;BME280;50945;44.472;-123.352;2022-09-02T09:10:02;99891.25;;;17.24;64.23
64551;BME280;50945;44.472;-123.352;2022-09-02T09:18:39;99895.94;;;17.24;65.28
64551;BME280;50945;44.472;-123.352;2022-09-02T09:21:07;99891.47;;;17.23;64.53
64551;BME280;50945;44.472;-123.352;2022-09-02T09:23:37;99898.09;;;17.22;64.80
64551;BME280;50945;44.472;-123.352;2022-09-02T09:28:40;99882.47;;;17.16;64.98
64551;BME280;50945;44.472;-123.352;2022-09-02T09:31:23;99888.63;;;17.06;65.22
64551;BME280;50945;44.472;-123.352;2022-09-02T09:34:06;99893.88;;;16.96;65.99
64551;BME280;50945;44.472;-123.352;2022-09-02T09:36:49;99893.50;;;16.92;65.61
64551;BME280;50945;44.472;-123.352;2022-09-02T09:39:28;99895.06;;;16.88;66.19
64551;BME280;50945;44.472;-123.352;2022-09-02T09:41:59;99894.03;;;16.82;65.34
64551;BME280;50945;44.472;-123.352;2022-09-02T09:47:07;99897.25;;;16.67;65.31
64551;BME280;50945;44.472;-123.352;2022-09-02T09:49:36;99898.22;;;16.61;65.35
64551;BME280;50945;44.472;-123.352;2022-09-02T09:52:03;99890.88;;;16.55;65.50
64551;BME280;50945;44.472;-123.352;2022-09-02T09:54:30;99891.81;;;16.49;66.06
64551;BME280;50945;44.472;-123.352;2022-09-02T09:57:13;99884.94;;;16.40;67.39
64551;BME280;50945;44.472;-123.352;2022-09-02T09:59:43;99880.22;;;16.28;66.21
64551;BME280;50945;44.472;-123.352;2022-09-02T10:02:23;99884.84;;;16.16;67.56
64551;BME280;50945;44.472;-123.352;2022-09-02T10:04:54;99888.94;;;16.13;66.57
64551;BME280;50945;44.472;-123.352;2022-09-02T10:07:37;99894.91;;;16.10;66.27
64551;BME280;50945;44.472;-123.352;2022-09-02T10:10:26;99898.13;;;16.07;69.10
64551;BME280;50945;44.472;-123.352;2022-09-02T10:12:56;99900.66;;;16.09;67.14
64551;BME280;50945;44.472;-123.352;2022-09-02T10:15:55;99901.97;;;16.06;69.21
64551;BME280;50945;44.472;-123.352;2022-09-02T10:18:49;99898.84;;;16.03;67.61
64551;BME280;50945;44.472;-123.352;2022-09-02T10:27:10;99904.88;;;15.93;66.88
64551;BME280;50945;44.472;-123.352;2022-09-02T10:30:37;99901.75;;;15.89;69.00
64551;BME280;50945;44.472;-123.352;2022-09-02T10:35:47;99902.94;;;15.93;67.98
64551;BME280;50945;44.472;-123.352;2022-09-02T10:38:45;99900.19;;;15.93;68.92
64551;BME280;50945;44.472;-123.352;2022-09-02T10:46:55;99910.22;;;15.88;68.39
64551;BME280;50945;44.472;-123.352;2022-09-02T10:52:38;99901.59;;;15.84;70.61
64551;BME280;50945;44.472;-123.352;2022-09-02T10:55:28;99914.38;;;15.78;68.21
64551;BME280;50945;44.472;-123.352;2022-09-02T10:58:13;99908.06;;;15.71;70.07
64551;BME280;50945;44.472;-123.352;2022-09-02T11:00:47;99910.59;;;15.73;68.12
64551;BME280;50945;44.472;-123.352;2022-09-02T11:03:33;99915.91;;;15.74;69.84
64551;BME280;50945;44.472;-123.352;2022-09-02T11:06:11;99909.94;;;15.77;68.77
64551;BME280;50945;44.472;-123.352;2022-09-02T11:09:34;99919.88;;;15.78;69.23
64551;BME280;50945;44.472;-123.352;2022-09-02T11:14:30;99914.19;;;15.73;70.32
64551;BME280;50945;44.472;-123.352;2022-09-02T11:19:45;99912.06;;;15.75;69.13
64551;BME280;50945;44.472;-123.352;2022-09-02T11:22:18;99918.44;;;15.76;68.49
64551;BME280;50945;44.472;-123.352;2022-09-02T11:25:29;99918.44;;;15.76;70.51
64551;BME280;50945;44.472;-123.352;2022-09-02T11:30:50;99914.00;;;15.75;69.62
64551;BME280;50945;44.472;-123.352;2022-09-02T11:33:28;99912.06;;;15.75;68.97
64551;BME280;50945;44.472;-123.352;2022-09-02T11:35:57;99918.44;;;15.76;68.86
64551;BME280;50945;44.472;-123.352;2022-09-02T11:38:38;99913.16;;;15.74;69.97
64551;BME280;50945;44.472;-123.352;2022-09-02T11:41:21;99919.09;;;15.71;69.67
64551;BME280;50945;44.472;-123.352;2022-09-02T11:52:04;99918.59;;;15.56;68.74
64551;BME280;50945;44.472;-123.352;2022-09-02T11:54:42;99915.94;;;15.49;69.32
64551;BME280;50945;44.472;-123.352;2022-09-02T11:57:13;99916.41;;;15.46;69.37
64551;BME280;50945;44.472;-123.352;2022-09-02T12:07:57;99919.44;;;15.38;68.99
64551;BME280;50945;44.472;-123.352;2022-09-02T12:19:16;99924.53;;;15.16;69.37
64551;BME280;50945;44.472;-123.352;2022-09-02T12:24:54;99926.53;;;15.02;70.00
64551;BME280;50945;44.472;-123.352;2022-09-02T12:27:39;99929.97;;;14.97;70.15
64551;BME280;50945;44.472;-123.352;2022-09-02T12:30:09;99925.97;;;14.93;69.36
64551;BME280;50945;44.472;-123.352;2022-09-02T12:40:53;99927.50;;;14.89;70.65
64551;BME280;50945;44.472;-123.352;2022-09-02T12:43:45;99933.22;;;14.88;70.39
64551;BME280;50945;44.472;-123.352;2022-09-02T12:57:00;99934.47;;;14.60;69.87
64551;BME280;50945;44.472;-123.352;2022-09-02T12:59:33;99930.47;;;14.49;70.42
64551;BME280;50945;44.472;-123.352;2022-09-02T13:02:27;99936.06;;;14.36;71.42
64551;BME280;50945;44.472;-123.352;2022-09-02T13:07:41;99938.25;;;14.20;71.11
64551;BME280;50945;44.472;-123.352;2022-09-02T13:10:36;99938.69;;;14.17;72.92
64551;BME280;50945;44.472;-123.352;2022-09-02T13:16:37;99940.59;;;14.17;73.17
64551;BME280;50945;44.472;-123.352;2022-09-02T13:33:05;99939.91;;;14.28;71.53
64551;BME280;50945;44.472;-123.352;2022-09-02T13:35:32;99944.13;;;14.31;77.49
64551;BME280;50945;44.472;-123.352;2022-09-02T13:38:01;99945.19;;;14.30;71.48
64551;BME280;50945;44.472;-123.352;2022-09-02T13:40:35;99946.03;;;14.30;72.00
64551;BME280;50945;44.472;-123.352;2022-09-02T13:43:25;99952.38;;;14.31;71.35
64551;BME280;50945;44.472;-123.352;2022-09-02T13:45:54;99950.47;;;14.31;71.08
64551;BME280;50945;44.472;-123.352;2022-09-02T13:48:31;99947.50;;;14.33;71.34
64551;BME280;50945;44.472;-123.352;2022-09-02T13:51:17;99949.63;;;14.31;72.93
64551;BME280;50945;44.472;-123.352;2022-09-02T13:53:46;99951.13;;;14.26;71.10
64551;BME280;50945;44.472;-123.352;2022-09-02T13:56:15;99950.94;;;14.21;71.16
64551;BME280;50945;44.472;-123.352;2022-09-02T13:58:53;99953.72;;;14.15;71.45
64551;BME280;50945;44.472;-123.352;2022-09-02T14:01:27;99953.13;;;14.06;71.50
64551;BME280;50945;44.472;-123.352;2022-09-02T14:03:56;99959.03;;;14.03;72.01
64551;BME280;50945;44.472;-123.352;2022-09-02T14:06:29;99947.44;;;14.01;71.57
64551;BME280;50945;44.472;-123.352;2022-09-02T14:09:00;99943.22;;;13.98;71.41
64551;BME280;50945;44.472;-123.352;2022-09-02T14:11:28;99945.09;;;13.98;71.71
64551;BME280;50945;44.472;-123.352;2022-09-02T14:13:57;99937.28;;;14.01;72.48
64551;BME280;50945;44.472;-123.352;2022-09-02T14:16:30;99948.06;;;14.03;72.35
64551;BME280;50945;44.472;-123.352;2022-09-02T14:19:22;99946.56;;;14.07;74.78
64551;BME280;50945;44.472;-123.352;2022-09-02T14:21:50;99947.81;;;14.11;72.24
64551;BME280;50945;44.472;-123.352;2022-09-02T14:26:52;99953.50;;;14.16;72.32
64551;BME280;50945;44.472;-123.352;2022-09-02T14:29:20;99959.19;;;14.21;72.31
64551;BME280;50945;44.472;-123.352;2022-09-02T14:32:05;99957.47;;;14.27;73.77
64551;BME280;50945;44.472;-123.352;2022-09-02T14:34:36;99957.66;;;14.32;72.06
64551;BME280;50945;44.472;-123.352;2022-09-02T14:40:06;99964.34;;;14.50;72.85
64551;BME280;50945;44.472;-123.352;2022-09-02T14:42:51;99963.06;;;14.59;72.11
64551;BME280;50945;44.472;-123.352;2022-09-02T14:45:30;99958.56;;;14.64;72.22